Airfield :
LOGIN :

Register | Disclaimer

   EN    FR    IT 

 










Legend :    VFR   Marginal VFR   IFR   Intensive IFR   Very Intensive IFR
Visi :
Ceiling :
>= 8 km
>= 3000ft
5 to 8 km
1000 to 3000 ft
1500m to 5 km
500 to 1000 ft
800 to 1500m
200 to 500 ft
< 800m
< 200 ft
Symbols :   Thunderstorms  Fog  Heavy snow  Heavy precipitations  Wind > 20 kt
SIGMETs :     Misc.  Thunderstorms  Icing  Turbulence  Mountain Waves  Volcanic Ashes






- Airport Elevation : 512 ft
- IATA code : URO


LFOP - Rouen Vallée de Seine

CURRENT METAR :
  • 080230Z AUTO 21016KT 9999 OVC018 09/07 Q1010

EXPIRED METARs :
  • 080200Z AUTO 21017KT 9999 OVC019 09/07 Q1011
  • 080130Z AUTO 22017KT 9999 OVC020 09/07 Q1012
  • 080100Z AUTO 22015KT 9999 OVC020 09/07 Q1012
  • 080030Z AUTO 22013KT 9999 OVC020 09/08 Q1013
  • 080000Z AUTO 21010KT 9999 BKN013 BKN018 OVC026 08/07 Q1013

TAF TAF LFOP
Valid from the 07 at 18:00 until the 08 at 18:00 UTC


071700Z 0718/0818 22013KT 9999 BKN030
TEMPO 0800/0805 BKN008 OVC030
TEMPO 0805/0810 22020G30KT 3000 RA OVC006
FM081000 26015KT 9999 BKN030
TEMPO 0810/0816 26020G30KT BKN030TCU
TEMPO 0816/0818 26020G35KT 4000 SHRA BKN030CB
ATIS : +33 2 35 80 80 34
Met : +33 2 32 86 52 80



MET'MAP, your aeronautical weather chart ! - Copyright ORBIFLY December 2007 - Disclaimer

ORBIFLY MET'MAP TEAM :

Programming & Development : Alexandra Zaïnal
Concept & original design : Baudouin d'Aumeries
Assistance for programming : Marc-Olivier Méhu
Technical & hardware support : Manuel Goepfert

Contact : metmap@orbifly.com




SOURCES & CREDITS :

   NOAA